Schneifelwetter: Wetterstation Hallschlag, 537 m . NN
Wetterdaten: Mittwoch, 04.04.2007
Datum Zeit Temp. A. Temp. 2 Feuchte A. Luftdruck Regen Wind Richtung Richtung Sonnenschein Helligkeit T Regen Taupunkt Windchill
04.04.2007 00:00 3,0 C 2,6 C 87 % 1013 hPa 0,0 l/m 34,4 km/h (5 Bft) N-NO67.5 20 0 min 0 lux 0,00 min 1,1 C -10,3 C
04.04.2007 00:15 3,0 C 2,5 C 86 % 1013 hPa 0,0 l/m 39,4 km/h (6 Bft) N-NO67.5 25 0 min 0 lux 0,00 min 0,9 C -11,4 C
04.04.2007 00:30 2,9 C 2,5 C 86 % 1013 hPa 0,0 l/m 42,1 km/h (6 Bft) N-NO 15 0 min 0 lux 0,00 min 0,8 C -12,0 C
04.04.2007 00:45 2,8 C 2,5 C 86 % 1013 hPa 0,0 l/m 41,1 km/h (6 Bft) NO67.5 35 0 min 0 lux 0,00 min 0,7 C -12,0 C
04.04.2007 01:00 2,8 C 2,4 C 85 % 1014 hPa 0,0 l/m 48,8 km/h (6 Bft) N-NO45 25 0 min 0 lux 0,00 min 0,5 C -13,2 C
04.04.2007 01:15 2,7 C 2,2 C 84 % 1014 hPa 0,0 l/m 44,9 km/h (6 Bft) NO67.5 40 0 min 0 lux 0,00 min 0,3 C -12,8 C
04.04.2007 01:30 2,6 C 2,1 C 85 % 1014 hPa 0,0 l/m 42,5 km/h (6 Bft) NO22.5 35 0 min 0 lux 0,00 min 0,3 C -12,5 C
04.04.2007 01:45 2,5 C 2,1 C 85 % 1014 hPa 0,0 l/m 37,2 km/h (5 Bft) N-NO22.5 25 0 min 0 lux 0,00 min 0,2 C -11,7 C
04.04.2007 02:00 2,5 C 2,1 C 85 % 1014 hPa 0,0 l/m 41,6 km/h (6 Bft) NO45 35 0 min 0 lux 0,00 min 0,2 C -12,5 C
04.04.2007 02:15 2,5 C 2,1 C 86 % 1014 hPa 0,0 l/m 34,3 km/h (5 Bft) N-NO22.5 30 0 min 0 lux 0,00 min 0,4 C -11,0 C
04.04.2007 02:30 2,4 C 2,1 C 86 % 1014 hPa 0,0 l/m 37,0 km/h (5 Bft) NO67.5 35 0 min 0 lux 0,00 min 0,3 C -11,8 C
04.04.2007 02:45 2,3 C 2,0 C 86 % 1014 hPa 0,0 l/m 43,3 km/h (6 Bft) NO67.5 35 0 min 0 lux 0,00 min 0,2 C -13,1 C
04.04.2007 03:00 2,2 C 2,0 C 86 % 1014 hPa 0,0 l/m 36,2 km/h (5 Bft) N-NO45 15 0 min 0 lux 0,00 min 0,1 C -11,9 C
04.04.2007 03:15 2,2 C 1,9 C 86 % 1014 hPa 0,0 l/m 32,7 km/h (5 Bft) N-NO67.5 20 0 min 0 lux 0,00 min 0,1 C -11,0 C
04.04.2007 03:30 2,1 C 1,8 C 86 % 1014 hPa 0,0 l/m 32,9 km/h (5 Bft) N67.5 5 0 min 0 lux 0,00 min 0,0 C -11,2 C
04.04.2007 03:45 2,0 C 1,7 C 86 % 1014 hPa 0,0 l/m 29,2 km/h (5 Bft) NO67.5 35 0 min 0 lux 0,00 min -0,1 C -10,4 C
04.04.2007 04:00 1,9 C 1,7 C 87 % 1014 hPa 0,0 l/m 34,0 km/h (5 Bft) N-NO45 15 0 min 0 lux 0,00 min -0,0 C -11,8 C
04.04.2007 04:15 1,9 C 1,6 C 87 % 1014 hPa 0,0 l/m 30,8 km/h (5 Bft) N-NO67.5 20 0 min 0 lux 0,00 min -0,0 C -11,0 C
04.04.2007 04:30 1,8 C 1,6 C 87 % 1014 hPa 0,0 l/m 33,5 km/h (5 Bft) N-NO22.5 20 0 min 0 lux 0,00 min -0,1 C -11,8 C
04.04.2007 04:45 1,8 C 1,6 C 87 % 1014 hPa 0,0 l/m 31,4 km/h (5 Bft) N-NO45 25 0 min 0 lux 0,00 min -0,1 C -11,3 C
04.04.2007 05:00 1,8 C 1,5 C 87 % 1014 hPa 0,0 l/m 31,2 km/h (5 Bft) N-NO67.5 25 0 min 0 lux 0,00 min -0,1 C -11,2 C
04.04.2007 05:15 1,7 C 1,4 C 87 % 1014 hPa 0,0 l/m 32,0 km/h (5 Bft) N-NO22.5 25 0 min 0 lux 0,00 min -0,2 C -11,6 C
04.04.2007 05:30 1,6 C 1,4 C 87 % 1014 hPa 0,0 l/m 34,8 km/h (5 Bft) N-NO45 25 0 min 0 lux 0,00 min -0,3 C -12,4 C
04.04.2007 05:45 1,4 C 1,2 C 87 % 1014 hPa 0,0 l/m 32,1 km/h (5 Bft) N-NO67.5 15 0 min 0 lux 0,00 min -0,5 C -12,0 C
04.04.2007 06:00 1,2 C 1,1 C 87 % 1014 hPa 0,0 l/m 35,3 km/h (5 Bft) N-NO22.5 20 0 min 0 lux 0,00 min -0,7 C -13,1 C
04.04.2007 06:15 1,1 C 0,9 C 87 % 1014 hPa 0,0 l/m 33,2 km/h (5 Bft) N-NO45 20 0 min 0 lux 0,00 min -0,8 C -12,7 C
04.04.2007 06:30 0,9 C 0,6 C 87 % 1014 hPa 0,0 l/m 35,0 km/h (5 Bft) N-NO67.5 25 0 min 0 lux 0,00 min -1,0 C -13,5 C
04.04.2007 06:45 0,6 C 0,1 C 87 % 1014 hPa 0,0 l/m 33,6 km/h (5 Bft) N-NO22.5 25 0 min 0 lux 0,00 min -1,3 C -13,6 C
04.04.2007 07:00 0,6 C 0,1 C 88 % 1014 hPa 0,0 l/m 28,1 km/h (4 Bft) N-NO67.5 15 0 min 156 lux 0,00 min -1,2 C -12,0 C
04.04.2007 07:16 0,6 C 0,1 C 89 % 1014 hPa 0,0 l/m 27,8 km/h (4 Bft) N-NO67.5 30 0 min 473 lux 0,00 min -1,0 C -11,9 C
04.04.2007 07:31 0,6 C 0,3 C 89 % 1015 hPa 0,0 l/m 31,0 km/h (5 Bft) N-NO22.5 25 0 min 693 lux 0,00 min -1,0 C -12,9 C
04.04.2007 07:46 0,6 C 0,3 C 88 % 1015 hPa 0,0 l/m 25,8 km/h (4 Bft) N-NO45 20 0 min 1,37 klux 0,00 min -1,2 C -11,2 C
04.04.2007 08:01 0,6 C 0,3 C 88 % 1015 hPa 0,0 l/m 34,0 km/h (5 Bft) N-NO22.5 25 0 min 3,14 klux 0,00 min -1,2 C -13,7 C
04.04.2007 08:15 0,7 C 0,4 C 88 % 1015 hPa 0,0 l/m 37,7 km/h (5 Bft) NO67.5 40 0 min 3,72 klux 0,00 min -1,1 C -14,4 C
04.04.2007 08:30 0,7 C 0,5 C 87 % 1015 hPa 0,0 l/m 36,0 km/h (5 Bft) N-NO45 25 0 min 5,21 klux 0,00 min -1,2 C -14,0 C
04.04.2007 08:45 0,8 C 0,7 C 85 % 1015 hPa 0,0 l/m 34,9 km/h (5 Bft) NO22.5 35 0 min 7,38 klux 0,00 min -1,4 C -13,6 C
04.04.2007 09:01 1,1 C 0,9 C 85 % 1015 hPa 0,0 l/m 36,0 km/h (5 Bft) N-NO22.5 30 0 min 11,2 klux 0,00 min -1,1 C -13,4 C
04.04.2007 09:15 1,2 C 1,2 C 83 % 1015 hPa 0,0 l/m 38,8 km/h (5 Bft) N-NO22.5 30 14 min 47,0 klux 0,00 min -1,4 C -13,9 C
04.04.2007 09:30 1,6 C 1,5 C 81 % 1015 hPa 0,0 l/m 39,8 km/h (6 Bft) N-NO22.5 30 0 min 39,3 klux 0,00 min -1,3 C -13,5 C
04.04.2007 09:45 1,9 C 1,7 C 79 % 1015 hPa 0,0 l/m 42,7 km/h (6 Bft) N-NO22.5 30 15 min 60,1 klux 0,00 min -1,3 C -13,6 C
04.04.2007 10:00 3,1 C 3,7 C 77 % 1015 hPa 0,0 l/m 42,0 km/h (6 Bft) N-NO45 25 15 min 74,0 klux 0,00 min -0,5 C -11,7 C
04.04.2007 10:16 3,5 C 4,0 C 69 % 1015 hPa 0,0 l/m 45,9 km/h (6 Bft) O-NO45 60 16 min 73,8 klux 0,00 min -1,6 C -11,7 C
04.04.2007 10:30 3,2 C 3,8 C 69 % 1015 hPa 0,0 l/m 44,5 km/h (6 Bft) O-NO45 65 14 min 82,1 klux 0,00 min -1,9 C -12,0 C
04.04.2007 10:45 3,0 C 3,8 C 71 % 1016 hPa 0,0 l/m 38,8 km/h (5 Bft) NO45 55 0 min 34,1 klux 0,00 min -1,7 C -11,3 C
04.04.2007 11:00 3,0 C 4,0 C 71 % 1016 hPa 0,0 l/m 36,9 km/h (5 Bft) N-NO67.5 25 0 min 34,7 klux 0,00 min -1,7 C -10,9 C
04.04.2007 11:15 3,3 C 4,2 C 69 % 1016 hPa 0,0 l/m 36,6 km/h (5 Bft) O-NO45 60 15 min 56,6 klux 0,00 min -1,8 C -10,4 C
04.04.2007 11:30 3,4 C 4,8 C 69 % 1016 hPa 0,0 l/m 37,3 km/h (5 Bft) NO22.5 40 15 min 88,4 klux 0,00 min -1,7 C -10,4 C
04.04.2007 11:46 4,6 C 6,5 C 71 % 1016 hPa 0,0 l/m 34,4 km/h (5 Bft) N-NO45 30 16 min 105 klux 0,00 min -0,2 C -8,0 C
04.04.2007 12:00 6,0 C 9,2 C 65 % 1016 hPa 0,0 l/m 33,2 km/h (5 Bft) O-NO22.5 70 14 min 112 klux 0,00 min -0,1 C -5,7 C
04.04.2007 12:15 4,8 C 8,4 C 64 % 1017 hPa 0,0 l/m 33,7 km/h (5 Bft) N-NO45 30 15 min 100 klux 0,00 min -1,4 C -7,6 C
04.04.2007 12:30 5,1 C 9,3 C 68 % 1017 hPa 0,0 l/m 34,0 km/h (5 Bft) N-NO22.5 20 15 min 111 klux 0,00 min -0,3 C -7,2 C
04.04.2007 12:45 4,9 C 9,1 C 65 % 1017 hPa 0,0 l/m 34,4 km/h (5 Bft) N-NO67.5 15 15 min 113 klux 0,00 min -1,1 C -7,6 C
04.04.2007 13:01 4,7 C 8,2 C 65 % 1017 hPa 0,0 l/m 39,1 km/h (6 Bft) N67.5 10 0 min 40,2 klux 0,00 min -1,3 C -8,8 C
04.04.2007 13:15 5,6 C 10,2 C 65 % 1017 hPa 0,0 l/m 36,6 km/h (5 Bft) NO45 40 14 min 102 klux 0,00 min -0,4 C -7,0 C
04.04.2007 13:30 5,7 C 11,4 C 63 % 1017 hPa 0,0 l/m 37,1 km/h (5 Bft) NO22.5 35 15 min 108 klux 0,00 min -0,8 C -7,0 C
04.04.2007 13:45 5,8 C 12,2 C 65 % 1016 hPa 0,0 l/m 35,1 km/h (5 Bft) N-NO67.5 15 15 min 94,9 klux 0,00 min -0,3 C -6,4 C
04.04.2007 14:00 6,2 C 12,8 C 64 % 1016 hPa 0,0 l/m 34,9 km/h (5 Bft) NO22.5 35 15 min 100 klux 0,00 min -0,1 C -5,8 C
04.04.2007 14:15 6,0 C 12,6 C 62 % 1016 hPa 0,0 l/m 39,5 km/h (6 Bft) NO22.5 35 15 min 100 klux 0,00 min -0,7 C -7,0 C
04.04.2007 14:31 6,2 C 12,9 C 61 % 1016 hPa 0,0 l/m 33,0 km/h (5 Bft) N-NO45 30 16 min 93,7 klux 0,00 min -0,7 C -5,4 C
04.04.2007 14:45 6,8 C 14,1 C 61 % 1016 hPa 0,0 l/m 34,1 km/h (5 Bft) NO45 45 14 min 91,2 klux 0,00 min -0,2 C -4,8 C
04.04.2007 15:00 6,9 C 14,5 C 60 % 1016 hPa 0,0 l/m 38,6 km/h (5 Bft) N-NO22.5 25 15 min 85,7 klux 0,00 min -0,3 C -5,5 C
04.04.2007 15:15 7,2 C 15,1 C 60 % 1016 hPa 0,0 l/m 39,3 km/h (6 Bft) N-NO67.5 20 15 min 85,6 klux 0,00 min -0,0 C -5,1 C
04.04.2007 15:30 7,6 C 15,6 C 59 % 1016 hPa 0,0 l/m 33,4 km/h (5 Bft) O-NO45 60 15 min 81,9 klux 0,00 min 0,1 C -3,5 C
04.04.2007 15:46 7,6 C 15,6 C 57 % 1016 hPa 0,0 l/m 42,5 km/h (6 Bft) N-NO67.5 30 16 min 79,0 klux 0,00 min -0,4 C -5,0 C
04.04.2007 16:00 7,8 C 15,7 C 58 % 1016 hPa 0,0 l/m 37,8 km/h (5 Bft) N-NO22.5 25 14 min 75,5 klux 0,00 min 0,1 C -4,0 C
04.04.2007 16:15 8,0 C 15,8 C 57 % 1016 hPa 0,0 l/m 34,3 km/h (5 Bft) N-NO67.5 15 15 min 72,8 klux 0,00 min 0,0 C -3,1 C
04.04.2007 16:30 8,0 C 15,9 C 55 % 1016 hPa 0,0 l/m 37,3 km/h (5 Bft) N-NO45 25 15 min 68,2 klux 0,00 min -0,5 C -3,6 C
04.04.2007 16:45 8,0 C 16,0 C 56 % 1016 hPa 0,0 l/m 31,1 km/h (5 Bft) N-NO67.5 15 15 min 65,4 klux 0,00 min -0,2 C -2,4 C
04.04.2007 17:00 8,1 C 15,6 C 54 % 1017 hPa 0,0 l/m 32,7 km/h (5 Bft) NO67.5 45 15 min 61,2 klux 0,00 min -0,6 C -2,6 C
04.04.2007 17:16 8,2 C 15,5 C 54 % 1016 hPa 0,0 l/m 41,9 km/h (6 Bft) NO45 35 16 min 57,1 klux 0,00 min -0,5 C -4,1 C
04.04.2007 17:30 8,3 C 15,4 C 55 % 1016 hPa 0,0 l/m 33,7 km/h (5 Bft) N-NO45 25 14 min 53,0 klux 0,00 min -0,2 C -2,5 C
04.04.2007 17:45 8,4 C 14,9 C 53 % 1016 hPa 0,0 l/m 34,2 km/h (5 Bft) N-NO45 25 0 min 43,8 klux 0,00 min -0,6 C -2,5 C
04.04.2007 18:00 8,3 C 14,5 C 51 % 1016 hPa 0,0 l/m 36,0 km/h (5 Bft) NO45 35 0 min 43,3 klux 0,00 min -1,2 C -3,0 C
04.04.2007 18:15 8,2 C 14,0 C 51 % 1016 hPa 0,0 l/m 36,4 km/h (5 Bft) NO45 55 0 min 39,3 klux 0,00 min -1,3 C -3,2 C
04.04.2007 18:31 8,1 C 13,5 C 51 % 1016 hPa 0,0 l/m 28,9 km/h (5 Bft) N-NO45 30 0 min 35,3 klux 0,00 min -1,4 C -1,8 C
04.04.2007 18:45 8,0 C 10,6 C 52 % 1016 hPa 0,0 l/m 31,8 km/h (5 Bft) O-NO45 65 0 min 30,6 klux 0,00 min -1,2 C -2,6 C
04.04.2007 19:00 7,6 C 8,1 C 55 % 1016 hPa 0,0 l/m 32,7 km/h (5 Bft) N-NO45 30 0 min 25,8 klux 0,00 min -0,9 C -3,3 C
04.04.2007 19:15 7,2 C 6,8 C 58 % 1016 hPa 0,0 l/m 30,5 km/h (5 Bft) N67.5 10 0 min 20,5 klux 0,00 min -0,5 C -3,4 C
04.04.2007 19:30 6,8 C 6,0 C 58 % 1017 hPa 0,0 l/m 33,1 km/h (5 Bft) N-NO45 20 0 min 13,4 klux 0,00 min -0,9 C -4,6 C
04.04.2007 19:46 6,2 C 5,2 C 59 % 1017 hPa 0,0 l/m 26,0 km/h (4 Bft) N-NO22.5 15 0 min 6,05 klux 0,00 min -1,2 C -3,6 C
04.04.2007 20:01 5,6 C 4,4 C 60 % 1017 hPa 0,0 l/m 27,3 km/h (4 Bft) N-NO22.5 25 0 min 2,24 klux 0,00 min -1,5 C -4,8 C
04.04.2007 20:15 4,9 C 3,5 C 61 % 1017 hPa 0,0 l/m 23,5 km/h (4 Bft) NO67.5 35 0 min 842 lux 0,00 min -2,0 C -4,6 C
04.04.2007 20:30 4,5 C 2,7 C 62 % 1017 hPa 0,0 l/m 26,1 km/h (4 Bft) N-NO22.5 20 0 min 261 lux 0,00 min -2,1 C -6,0 C
04.04.2007 20:45 4,1 C 2,3 C 63 % 1017 hPa 0,0 l/m 23,5 km/h (4 Bft) N-NO22.5 25 0 min 58 lux 0,00 min -2,3 C -5,7 C
04.04.2007 21:00 3,9 C 2,2 C 63 % 1017 hPa 0,0 l/m 23,3 km/h (4 Bft) N-NO22.5 20 0 min 4 lux 0,00 min -2,5 C -5,9 C
04.04.2007 21:16 3,7 C 2,1 C 64 % 1017 hPa 0,0 l/m 19,0 km/h (3 Bft) N67.5 355 0 min 0 lux 0,00 min -2,5 C -4,4 C
04.04.2007 21:31 3,6 C 1,9 C 64 % 1018 hPa 0,0 l/m 22,9 km/h (4 Bft) N-NO67.5 20 0 min 0 lux 0,00 min -2,6 C -6,1 C
04.04.2007 21:45 3,2 C 1,2 C 65 % 1018 hPa 0,0 l/m 18,0 km/h (3 Bft) N-NO22.5 20 0 min 0 lux 0,00 min -2,7 C -4,6 C
04.04.2007 22:00 3,0 C 1,1 C 66 % 1018 hPa 0,0 l/m 18,6 km/h (3 Bft) N22.5 5 0 min 0 lux 0,00 min -2,7 C -5,1 C
04.04.2007 22:15 2,7 C 0,5 C 67 % 1018 hPa 0,0 l/m 15,0 km/h (3 Bft) N-NO22.5 20 0 min 0 lux 0,00 min -2,8 C -3,7 C
04.04.2007 22:30 2,5 C 0,4 C 67 % 1018 hPa 0,0 l/m 19,7 km/h (3 Bft) N22.5 10 0 min 0 lux 0,00 min -3,0 C -6,3 C
04.04.2007 22:45 2,1 C -0,3 C 67 % 1018 hPa 0,0 l/m 19,3 km/h (3 Bft) N-NO22.5 15 0 min 0 lux 0,00 min -3,4 C -6,6 C
04.04.2007 23:00 1,2 C -1,2 C 68 % 1018 hPa 0,0 l/m 4,5 km/h (1 Bft) O 90 0 min 0 lux 0,00 min -4,0 C 1,2 C
04.04.2007 23:16 0,7 C -1,4 C 70 % 1018 hPa 0,0 l/m 8,1 km/h (2 Bft) NO22.5 50 0 min 0 lux 0,00 min -4,1 C -1,0 C
04.04.2007 23:31 1,0 C -1,3 C 71 % 1018 hPa 0,0 l/m 11,5 km/h (2 Bft) N-NO22.5 20 0 min 0 lux 0,00 min -3,7 C -3,5 C
04.04.2007 23:45 0,8 C -1,5 C 71 % 1018 hPa 0,0 l/m 10,3 km/h (2 Bft) N-NO22.5 25 0 min 0 lux 0,00 min -3,8 C -2,8 C
04.04.2007 23:54 0,7 C -1,6 C 72 % 1018 hPa 0,0 l/m 10,0 km/h (2 Bft) N-NO 20 0 min 0 lux 0,00 min -3,8 C -2,7 C
_ Min-Zeit 06:45 23:54 18:00 00:00 - 23:00 - - - - - 23:16 08:15
Minimum _ 0,6 C -1,6 C 51 % 1013 hPa - 4,5 km/h (1 Bft) - - - - - -4,1 C -14,4 C
_ Max-Zeit 17:45 16:45 07:16 21:31 00:00 01:00 - - 10:16 12:45 00:00 00:00 23:00
Maximum _ 8,4 C 16,0 C 89 % 1018 hPa 0,0 l/m 48,8 km/h
N-NO (6 Bft)
- - 16 min 113 klux 0,00 min 1,1 C 1,2 C
Durchschnitt _ 3,8 C 5,2 C 72 % 1016 hPa #0,0 l/m 32,6 km/h (5 Bft) N-NO - #7:28 h 30,3 klux #0 min. -1,0 C -8,3 C